Time;durP1;ratioP1;P1;durP2;ratioP2;P2;SDS_P1;SDS_P2;PMS_P1;PMS_P2;Temp;Humidity;BMP_temperature;BMP_pressure;BME280_temperature;BME280_humidity;BME280_pressure;Samples;Min_cycle;Max_cycle;Signal;HPM_P1;HPM_P2
2022/05/20 00:01:15;;;;;;;3.10;0.88;;;23.10;49.30;;;;;;4116943;28;20054;-53
2022/05/20 00:03:18;;;;;;;3.67;1.00;;;23.40;48.80;;;;;;4110694;28;20065;-52
2022/05/20 00:05:20;;;;;;;5.65;1.23;;;23.60;48.60;;;;;;4110454;28;20408;-53
2022/05/20 00:07:25;;;;;;;5.05;1.20;;;23.90;48.50;;;;;;4115616;28;20111;-52
2022/05/20 00:09:27;;;;;;;5.68;1.08;;;24.20;48.00;;;;;;4112931;28;20057;-49
2022/05/20 00:11:29;;;;;;;4.18;1.17;;;24.40;47.60;;;;;;4108949;28;20757;-51
2022/05/20 00:13:31;;;;;;;7.18;1.33;;;24.70;47.10;;;;;;4112648;28;20487;-56
2022/05/20 00:15:34;;;;;;;4.33;1.07;;;24.90;46.80;;;;;;4116111;28;20049;-55
2022/05/20 00:17:36;;;;;;;5.17;0.87;;;25.10;46.00;;;;;;4107859;28;20322;-56
2022/05/20 00:19:38;;;;;;;3.87;1.20;;;25.30;46.20;;;;;;4108323;28;20054;-58
2022/05/20 00:21:41;;;;;;;2.85;1.05;;;25.50;46.00;;;;;;4115797;28;20315;-58
2022/05/20 00:23:43;;;;;;;1.93;0.90;;;25.70;45.70;;;;;;4109606;28;21977;-56
2022/05/20 00:25:48;;;;;;;2.97;0.80;;;25.90;45.40;;;;;;4107194;28;20336;-52
2022/05/20 00:27:50;;;;;;;4.00;1.02;;;26.10;45.30;;;;;;4111366;28;20053;-47
2022/05/20 00:29:52;;;;;;;6.30;1.02;;;26.30;45.10;;;;;;4114890;28;20073;-54
2022/05/20 00:31:54;;;;;;;7.72;1.00;;;26.40;44.90;;;;;;4110208;28;20045;-59
2022/05/20 00:33:56;;;;;;;3.55;0.95;;;26.60;44.80;;;;;;4109785;28;20148;-63
2022/05/20 00:35:59;;;;;;;4.07;0.80;;;26.60;44.80;;;;;;4117810;28;20187;-61
2022/05/20 00:38:01;;;;;;;2.90;0.90;;;26.30;45.30;;;;;;4110849;28;20780;-60
2022/05/20 00:40:05;;;;;;;5.22;1.30;;;25.90;46.20;;;;;;4111437;28;20550;-60
2022/05/20 00:42:17;;;;;;;5.90;1.50;;;25.50;47.10;;;;;;4115446;28;20446;-59
2022/05/20 00:44:19;;;;;;;3.60;0.88;;;25.10;47.60;;;;;;4116339;28;20140;-54
2022/05/20 00:46:24;;;;;;;2.97;0.80;;;24.80;48.20;;;;;;4115291;28;20614;-60
2022/05/20 00:48:28;;;;;;;4.47;1.02;;;24.60;48.90;;;;;;4110931;28;20064;-60
2022/05/20 00:50:30;;;;;;;3.30;1.00;;;24.40;49.30;;;;;;4110432;28;20376;-61
2022/05/20 00:52:36;;;;;;;2.47;0.93;;;24.10;49.50;;;;;;4118145;28;20280;-61
2022/05/20 00:54:44;;;;;;;2.38;0.82;;;24.00;49.70;;;;;;4118502;28;20355;-59
2022/05/20 00:56:49;;;;;;;2.13;0.80;;;23.80;50.00;;;;;;4110795;28;20091;-58
2022/05/20 00:58:53;;;;;;;4.70;0.80;;;23.60;50.40;;;;;;4109788;28;20172;-59
2022/05/20 01:00:57;;;;;;;2.40;0.88;;;23.40;50.40;;;;;;4111305;28;20180;-53
2022/05/20 01:03:03;;;;;;;1.83;0.77;;;23.40;50.70;;;;;;4121457;28;20079;-57
2022/05/20 01:05:17;;;;;;;14.70;1.00;;;23.20;50.10;;;;;;4120085;28;20799;-59
2022/05/20 01:08:12;;;;;;;3.83;0.90;;;23.10;50.70;;;;;;4138967;28;20071;-58
2022/05/20 01:10:35;;;;;;;1.88;0.57;;;23.00;51.00;;;;;;4151525;28;20049;-59
2022/05/20 01:12:39;;;;;;;1.33;0.50;;;22.80;51.10;;;;;;4154960;28;20037;-56
2022/05/20 01:14:41;;;;;;;;;;;22.80;51.10;;;;;;4119180;28;20436;-57
2022/05/20 01:16:43;;;;;;;2.47;1.08;;;22.70;51.10;;;;;;4119366;28;20011;-55
2022/05/20 01:18:53;;;;;;;1.13;0.75;;;22.60;51.00;;;;;;4112737;28;20140;-55
2022/05/20 01:20:56;;;;;;;2.22;0.90;;;22.50;51.00;;;;;;4110668;28;20049;-57
2022/05/20 01:23:15;;;;;;;3.28;0.93;;;22.50;50.90;;;;;;4111498;28;20050;-56
2022/05/20 01:25:17;;;;;;;1.63;1.13;;;22.40;51.00;;;;;;4110472;28;20079;-57
2022/05/20 01:27:20;;;;;;;1.67;1.02;;;22.30;50.90;;;;;;4112386;28;20049;-58
2022/05/20 01:29:22;;;;;;;4.07;0.77;;;22.20;51.00;;;;;;4118384;28;20060;-56
2022/05/20 01:31:24;;;;;;;2.58;1.02;;;22.20;51.10;;;;;;4109836;28;20080;-57
2022/05/20 01:33:38;;;;;;;1.45;0.80;;;22.10;51.20;;;;;;4109856;28;20056;-59
2022/05/20 01:35:43;;;;;;;2.25;0.95;;;22.00;51.20;;;;;;4110019;28;20182;-59
2022/05/20 01:37:46;;;;;;;2.03;0.93;;;22.00;51.30;;;;;;4114699;28;20081;-59
2022/05/20 01:39:48;;;;;;;1.17;0.77;;;21.90;51.20;;;;;;4117394;28;20543;-60
2022/05/20 01:42:07;;;;;;;1.58;0.63;;;21.90;51.50;;;;;;4109962;28;20588;-61
2022/05/20 01:44:21;;;;;;;1.50;0.70;;;21.80;51.50;;;;;;4112635;28;20172;-57
2022/05/20 01:46:33;;;;;;;0.93;0.60;;;21.70;51.50;;;;;;4115082;28;21193;-57
2022/05/20 01:49:03;;;;;;;1.45;0.90;;;21.70;51.70;;;;;;4114620;28;21958;-62
2022/05/20 01:51:10;;;;;;;2.78;0.77;;;21.70;51.80;;;;;;4096957;28;20866;-60
2022/05/20 01:53:41;;;;;;;1.80;1.05;;;21.60;51.80;;;;;;4112603;28;20122;-59
2022/05/20 01:55:55;;;;;;;2.33;1.00;;;21.50;51.90;;;;;;4111110;28;21087;-58
2022/05/20 01:58:11;;;;;;;1.27;0.60;;;21.50;52.00;;;;;;4114933;28;21323;-58
2022/05/20 02:00:22;;;;;;;1.75;0.88;;;21.50;52.10;;;;;;4118298;28;20603;-56
2022/05/20 02:02:54;;;;;;;2.85;1.08;;;21.50;52.10;;;;;;4115641;28;20060;-56
2022/05/20 02:05:33;;;;;;;3.75;0.93;;;21.40;52.20;;;;;;4108578;28;20397;-58
2022/05/20 02:07:41;;;;;;;1.10;0.70;;;21.30;52.20;;;;;;4106917;28;20548;-58
2022/05/20 02:09:57;;;;;;;1.48;0.65;;;21.30;52.30;;;;;;4111593;28;20060;-58
2022/05/20 02:11:59;;;;;;;1.98;1.13;;;21.30;51.80;;;;;;4109855;28;20501;-57
2022/05/20 02:14:16;;;;;;;2.92;1.05;;;21.20;51.60;;;;;;4118701;28;20477;-53
2022/05/20 02:16:48;;;;;;;3.60;1.50;;;21.10;51.40;;;;;;4114936;28;20107;-61
2022/05/20 02:18:56;;;;;;;3.22;1.58;;;21.00;51.70;;;;;;4110342;28;20056;-60
2022/05/20 02:21:04;;;;;;;3.33;1.15;;;21.00;51.80;;;;;;4108415;28;20508;-58
2022/05/20 02:23:31;;;;;;;2.17;1.17;;;20.90;51.90;;;;;;4107852;28;20543;-57
2022/05/20 02:25:38;;;;;;;3.67;1.02;;;20.90;52.20;;;;;;4097686;28;20049;-54
2022/05/20 02:27:48;;;;;;;2.63;1.20;;;20.90;52.40;;;;;;4109148;28;20678;-58
2022/05/20 02:30:01;;;;;;;3.75;1.02;;;20.80;52.40;;;;;;4109287;28;20449;-59
2022/05/20 02:32:10;;;;;;;1.95;1.15;;;20.80;52.60;;;;;;4108141;28;20057;-58
2022/05/20 02:34:12;;;;;;;3.70;1.60;;;20.70;52.60;;;;;;4108641;28;20496;-58
2022/05/20 02:36:28;;;;;;;4.28;1.52;;;20.60;52.80;;;;;;4106943;28;20051;-59
2022/05/20 02:38:30;;;;;;;3.72;1.45;;;20.50;52.80;;;;;;4108506;28;20579;-59
2022/05/20 02:40:32;;;;;;;4.18;1.45;;;20.40;53.20;;;;;;4112436;28;20053;-59
2022/05/20 02:42:34;;;;;;;2.58;1.50;;;20.30;53.20;;;;;;4113438;28;20546;-59
2022/05/20 02:44:36;;;;;;;2.75;1.35;;;20.30;53.40;;;;;;4107600;28;20385;-58
2022/05/20 02:46:40;;;;;;;3.35;1.35;;;20.20;53.70;;;;;;4109262;28;20508;-56
2022/05/20 02:48:42;;;;;;;3.28;1.48;;;20.10;54.00;;;;;;4115261;28;21016;-58
2022/05/20 02:50:44;;;;;;;3.03;1.10;;;20.10;54.10;;;;;;4121248;28;20920;-57
2022/05/20 02:52:46;;;;;;;1.58;1.10;;;20.10;54.50;;;;;;4107288;28;20531;-57
2022/05/20 02:54:49;;;;;;;3.20;1.10;;;20.10;54.70;;;;;;4115396;28;20107;-59
2022/05/20 02:56:51;;;;;;;2.42;1.25;;;20.10;54.90;;;;;;4111236;28;20049;-59
2022/05/20 03:05:55;;;;;;;1.63;0.90;;;20.00;55.30;;;;;;4110724;28;20073;-49
2022/05/20 03:07:57;;;;;;;3.30;1.00;;;20.00;55.40;;;;;;4117586;28;20053;-51
2022/05/20 03:10:00;;;;;;;1.27;0.77;;;20.00;55.40;;;;;;4109593;28;20141;-52
2022/05/20 03:12:03;;;;;;;1.85;1.17;;;20.00;55.60;;;;;;4109603;28;20072;-53
2022/05/20 03:14:06;;;;;;;3.00;1.05;;;20.00;55.50;;;;;;4117133;28;20920;-55
2022/05/20 03:16:09;;;;;;;2.42;1.10;;;20.00;55.70;;;;;;4115105;28;21168;-57
2022/05/20 03:18:13;;;;;;;1.75;0.93;;;20.00;55.80;;;;;;4110170;28;20473;-58
2022/05/20 03:20:15;;;;;;;3.20;1.27;;;20.00;55.80;;;;;;4111373;28;20050;-55
2022/05/20 03:22:17;;;;;;;4.97;1.00;;;20.00;56.00;;;;;;4119327;28;20470;-59
2022/05/20 03:24:19;;;;;;;2.00;0.88;;;20.00;55.90;;;;;;4110844;28;20076;-59
2022/05/20 03:26:21;;;;;;;1.17;0.57;;;20.00;56.00;;;;;;4109404;28;20199;-59
2022/05/20 03:28:23;;;;;;;4.25;1.00;;;19.90;56.10;;;;;;4113265;28;20068;-59
2022/05/20 03:30:26;;;;;;;1.60;0.85;;;20.00;56.20;;;;;;4108776;28;20064;-60
2022/05/20 03:32:28;;;;;;;4.07;0.97;;;19.90;56.10;;;;;;4109079;28;20046;-55
2022/05/20 03:34:30;;;;;;;3.92;1.13;;;19.90;56.20;;;;;;4113961;28;21170;-59
2022/05/20 03:36:38;;;;;;;1.23;0.80;;;19.90;56.30;;;;;;4129599;28;20582;-57
2022/05/20 03:38:40;;;;;;;1.85;0.73;;;19.90;56.40;;;;;;4109966;28;20173;-53
2022/05/20 03:40:42;;;;;;;2.70;0.95;;;19.90;56.50;;;;;;4110036;28;20057;-57
2022/05/20 03:42:44;;;;;;;1.40;0.80;;;19.90;56.70;;;;;;4115897;28;20053;-59
2022/05/20 03:44:46;;;;;;;1.42;0.85;;;19.90;56.70;;;;;;4111110;28;20216;-58
2022/05/20 03:46:54;;;;;;;2.70;0.93;;;19.90;56.80;;;;;;4109256;28;20136;-57
2022/05/20 03:48:58;;;;;;;3.55;1.02;;;19.90;56.90;;;;;;4106870;28;20064;-52
2022/05/20 03:51:14;;;;;;;1.95;1.00;;;19.90;57.00;;;;;;4113112;28;20207;-59
2022/05/20 03:53:17;;;;;;;1.75;0.70;;;19.90;57.10;;;;;;4108354;28;20049;-59
2022/05/20 03:55:19;;;;;;;1.95;0.95;;;19.90;57.30;;;;;;4116407;28;20061;-56
2022/05/20 03:57:21;;;;;;;2.45;1.00;;;19.80;57.30;;;;;;4108311;28;20435;-58
2022/05/20 03:59:23;;;;;;;1.58;1.10;;;19.90;57.50;;;;;;4107716;28;20478;-55
2022/05/20 04:03:46;;;;;;;1.52;1.17;;;19.80;57.80;;;;;;4108149;28;21026;-59
2022/05/20 04:05:48;;;;;;;4.40;1.27;;;19.80;57.80;;;;;;4116292;28;20089;-60
2022/05/20 04:07:50;;;;;;;3.65;1.42;;;19.80;58.00;;;;;;4106714;28;20049;-60
2022/05/20 04:09:53;;;;;;;1.75;1.35;;;19.80;58.10;;;;;;4106681;28;20393;-59
2022/05/20 04:11:58;;;;;;;3.20;1.90;;;19.80;58.20;;;;;;4114391;28;20046;-59
2022/05/20 04:14:01;;;;;;;2.85;1.80;;;19.80;58.50;;;;;;4117231;28;20531;-59
2022/05/20 04:16:04;;;;;;;3.13;1.70;;;19.80;58.50;;;;;;4108412;28;20120;-58
2022/05/20 04:18:06;;;;;;;3.03;1.77;;;19.80;58.40;;;;;;4108227;28;20057;-60
2022/05/20 04:20:09;;;;;;;4.40;1.65;;;19.80;58.60;;;;;;4112165;28;20127;-56
2022/05/20 04:22:13;;;;;;;3.60;1.63;;;19.80;58.60;;;;;;4108021;28;21687;-59
2022/05/20 04:24:15;;;;;;;4.07;2.00;;;19.80;58.60;;;;;;4108958;28;21232;-57
2022/05/20 04:26:18;;;;;;;3.85;1.70;;;19.80;58.60;;;;;;4112518;28;20532;-55
2022/05/20 04:28:20;;;;;;;2.60;1.90;;;19.80;58.70;;;;;;4116635;28;20057;-59
2022/05/20 04:30:22;;;;;;;2.00;1.60;;;19.80;58.70;;;;;;4109609;28;20099;-57
2022/05/20 04:32:24;;;;;;;2.67;1.70;;;19.70;58.80;;;;;;4109895;28;20140;-52
2022/05/20 04:34:26;;;;;;;2.95;1.35;;;19.80;58.90;;;;;;4117110;28;20054;-55
2022/05/20 04:36:28;;;;;;;3.28;1.73;;;19.80;58.90;;;;;;4109435;28;20130;-59
2022/05/20 04:38:31;;;;;;;3.22;1.70;;;19.80;59.00;;;;;;4107784;28;20095;-59
2022/05/20 04:40:33;;;;;;;2.53;1.65;;;19.70;59.10;;;;;;4119372;28;20107;-59
2022/05/20 04:47:25;;;;;;;3.80;1.90;;;19.80;59.50;;;;;;4107457;28;20049;-55
2022/05/20 04:49:29;;;;;;;3.05;1.77;;;19.70;59.40;;;;;;4107553;28;20053;-57
2022/05/20 04:51:31;;;;;;;3.08;1.60;;;19.70;59.50;;;;;;4115914;28;20045;-55
2022/05/20 04:55:53;;;;;;;3.08;1.50;;;19.80;59.60;;;;;;4105986;28;20273;-52
2022/05/20 04:57:55;;;;;;;3.37;1.87;;;19.80;59.60;;;;;;4107209;28;20050;-54
2022/05/20 05:00:01;;;;;;;3.83;1.65;;;19.80;59.60;;;;;;4108154;28;20053;-55
2022/05/20 05:02:05;;;;;;;2.83;1.40;;;19.80;59.70;;;;;;4111970;28;20056;-56
2022/05/20 05:04:07;;;;;;;;;;;19.80;59.70;;;;;;4115051;28;20549;-57
2022/05/20 05:06:09;;;;;;;2.78;1.48;;;19.80;59.70;;;;;;4107295;28;19932;-56
2022/05/20 05:08:11;;;;;;;2.05;1.35;;;19.80;59.90;;;;;;4109270;28;20046;-54
2022/05/20 05:10:15;;;;;;;2.67;1.58;;;19.80;59.90;;;;;;4117399;28;20341;-58
2022/05/20 05:12:18;;;;;;;3.35;1.35;;;19.80;60.00;;;;;;4108925;28;20149;-55
2022/05/20 05:14:20;;;;;;;2.90;1.60;;;19.80;60.00;;;;;;4108616;28;20049;-48
2022/05/20 05:16:22;;;;;;;1.77;1.30;;;19.80;59.80;;;;;;4109755;28;20054;-54
2022/05/20 05:18:26;;;;;;;1.95;1.25;;;19.80;59.80;;;;;;4109587;28;20421;-58
2022/05/20 05:20:32;;;;;;;2.33;1.40;;;19.80;60.00;;;;;;4103490;28;20322;-57
2022/05/20 05:22:34;;;;;;;2.88;1.27;;;19.80;60.10;;;;;;4103200;28;20371;-53
2022/05/20 05:24:37;;;;;;;3.08;1.30;;;19.90;59.70;;;;;;4114782;28;20055;-58
2022/05/20 05:26:42;;;;;;;;;;;20.20;59.70;;;;;;4113089;28;20836;-52
2022/05/20 05:28:44;;;;;;;2.17;1.23;;;20.90;58.40;;;;;;4106729;28;19929;-53
2022/05/20 05:30:48;;;;;;;2.75;1.05;;;21.50;56.70;;;;;;4107787;28;20430;-54
2022/05/20 05:32:51;;;;;;;3.67;1.10;;;22.20;55.40;;;;;;4115432;28;20083;-58
2022/05/20 05:34:53;;;;;;;2.30;1.50;;;22.70;54.60;;;;;;4117458;28;22005;-53
2022/05/20 05:37:40;;;;;;;6.18;1.67;;;23.20;53.50;;;;;;4162845;28;20333;-59
2022/05/20 05:40:13;;;;;;;2.75;1.35;;;23.60;52.60;;;;;;4151154;28;20065;-56
2022/05/20 05:45:37;;;;;;;;;;;24.60;51.10;;;;;;4107393;28;20057;-53
2022/05/20 05:47:39;;;;;;;2.97;1.60;;;25.10;50.20;;;;;;4112768;28;20507;-52
2022/05/20 05:49:41;;;;;;;1.52;1.20;;;25.30;49.80;;;;;;4105041;28;20057;-56
2022/05/20 05:51:44;;;;;;;6.07;1.92;;;25.60;49.30;;;;;;4101269;28;20052;-54
2022/05/20 05:53:46;;;;;;;2.40;1.10;;;25.80;48.90;;;;;;4109840;28;20049;-56
2022/05/20 05:55:54;;;;;;;3.42;1.45;;;26.10;48.50;;;;;;4105526;28;20671;-53
2022/05/20 05:57:56;;;;;;;4.05;1.50;;;26.30;48.10;;;;;;4103914;28;20418;-51
2022/05/20 05:59:58;;;;;;;1.63;1.17;;;26.60;47.80;;;;;;4104241;28;20041;-52
2022/05/20 06:02:01;;;;;;;3.65;1.48;;;26.80;47.70;;;;;;4113888;28;20068;-58
2022/05/20 06:04:03;;;;;;;5.35;1.70;;;27.00;47.40;;;;;;4106857;28;20683;-54
2022/05/20 06:06:06;;;;;;;6.32;1.85;;;27.10;47.10;;;;;;4106010;28;20061;-56
2022/05/20 06:08:08;;;;;;;3.90;1.40;;;27.30;46.90;;;;;;4112360;28;20145;-58
2022/05/20 06:10:10;;;;;;;1.63;1.05;;;27.50;46.70;;;;;;4111737;28;20448;-57
2022/05/20 06:12:14;;;;;;;1.93;1.23;;;27.70;46.60;;;;;;4106068;28;20192;-53
2022/05/20 06:14:19;;;;;;;3.85;1.20;;;27.90;46.20;;;;;;4106928;28;20318;-55
2022/05/20 06:16:22;;;;;;;2.35;1.10;;;28.00;46.00;;;;;;4112985;28;20115;-54
2022/05/20 06:18:26;;;;;;;2.30;1.40;;;28.20;46.00;;;;;;4106984;28;20302;-57
2022/05/20 06:20:28;;;;;;;2.38;1.20;;;27.90;46.10;;;;;;4103684;28;20046;-53
2022/05/20 06:22:30;;;;;;;4.07;1.20;;;27.60;46.80;;;;;;4108791;28;20618;-60
2022/05/20 06:24:33;;;;;;;2.10;1.30;;;27.20;47.40;;;;;;4115352;28;20478;-60
2022/05/20 06:26:36;;;;;;;3.33;1.20;;;26.80;48.00;;;;;;4107502;28;20052;-54
2022/05/20 06:28:38;;;;;;;3.30;1.40;;;26.50;48.40;;;;;;4105130;28;20099;-57
2022/05/20 06:30:43;;;;;;;5.60;1.38;;;26.20;48.60;;;;;;4113205;28;20071;-49
2022/05/20 06:32:45;;;;;;;3.47;1.45;;;26.00;49.00;;;;;;4114259;28;20700;-55
2022/05/20 06:41:48;;;;;;;2.85;1.33;;;25.10;49.90;;;;;;4106872;28;20120;-56
2022/05/20 06:43:50;;;;;;;2.35;1.23;;;25.00;50.30;;;;;;4115183;28;20491;-57
2022/05/20 06:45:58;;;;;;;2.72;1.27;;;24.80;50.50;;;;;;4109157;28;20054;-55
2022/05/20 06:48:00;;;;;;;3.75;1.42;;;24.70;50.90;;;;;;4107661;28;20088;-56
2022/05/20 06:50:03;;;;;;;3.65;1.15;;;24.60;51.00;;;;;;4108020;28;20076;-56
2022/05/20 06:52:05;;;;;;;3.30;1.00;;;24.50;51.10;;;;;;4095944;28;20647;-52
2022/05/20 06:54:11;;;;;;;3.23;1.20;;;24.40;51.30;;;;;;4106826;28;20064;-51
2022/05/20 06:56:15;;;;;;;2.28;1.00;;;24.30;51.60;;;;;;4108075;28;20049;-54
2022/05/20 06:58:17;;;;;;;2.80;1.20;;;24.20;51.80;;;;;;4109709;28;20065;-56
2022/05/20 07:00:19;;;;;;;2.28;1.42;;;24.10;52.10;;;;;;4115409;28;20465;-57
2022/05/20 07:02:22;;;;;;;1.75;1.02;;;24.00;52.20;;;;;;4109347;28;20072;-54
2022/05/20 07:04:24;;;;;;;5.07;1.25;;;24.00;52.50;;;;;;4109138;28;20111;-54
2022/05/20 07:06:27;;;;;;;9.00;1.67;;;23.90;52.60;;;;;;4119101;28;20049;-55
2022/05/20 07:08:29;;;;;;;4.57;1.38;;;23.80;52.50;;;;;;4112303;28;20536;-55
2022/05/20 07:10:31;;;;;;;2.60;1.15;;;23.70;52.50;;;;;;4109095;28;20506;-55
2022/05/20 07:12:34;;;;;;;3.30;1.08;;;23.60;52.40;;;;;;4114500;28;20059;-57
2022/05/20 07:14:36;;;;;;;8.20;1.50;;;23.50;52.40;;;;;;4114905;28;21310;-56
2022/05/20 07:16:38;;;;;;;2.15;1.23;;;23.50;52.40;;;;;;4111774;28;20139;-54
2022/05/20 07:18:40;;;;;;;2.80;1.08;;;23.40;52.40;;;;;;4108528;28;20045;-58
2022/05/20 07:20:43;;;;;;;4.40;1.33;;;23.40;52.70;;;;;;4116364;28;20059;-58
2022/05/20 07:22:45;;;;;;;4.80;1.60;;;23.30;53.10;;;;;;4108771;28;20053;-55
2022/05/20 07:24:47;;;;;;;4.03;1.02;;;23.20;53.70;;;;;;4108875;28;20237;-57
2022/05/20 07:26:49;;;;;;;8.10;1.30;;;23.20;54.20;;;;;;4116945;28;20512;-58
2022/05/20 07:28:51;;;;;;;25.83;2.88;;;23.10;55.00;;;;;;4109004;28;20176;-54
2022/05/20 07:30:53;;;;;;;9.75;2.42;;;23.10;55.60;;;;;;4109175;28;20148;-50
2022/05/20 07:32:55;;;;;;;20.00;2.40;;;23.00;55.30;;;;;;4115110;28;20052;-54
2022/05/20 07:34:57;;;;;;;11.18;2.85;;;23.00;55.20;;;;;;4109242;28;20599;-52
2022/05/20 07:36:59;;;;;;;8.45;2.00;;;22.90;55.50;;;;;;4107221;28;20057;-56
2022/05/20 07:39:01;;;;;;;8.20;1.83;;;22.90;55.80;;;;;;4111892;28;20121;-58
2022/05/20 07:41:05;;;;;;;7.78;1.65;;;22.80;55.90;;;;;;4114208;28;20049;-58
2022/05/20 07:43:07;;;;;;;8.55;1.77;;;22.70;56.10;;;;;;4106741;28;20053;-56
2022/05/20 07:45:10;;;;;;;7.78;2.05;;;22.70;56.20;;;;;;4106985;28;21540;-60
2022/05/20 07:47:12;;;;;;;7.47;1.67;;;22.70;56.30;;;;;;4116035;28;20045;-62
2022/05/20 07:49:15;;;;;;;5.90;1.80;;;22.60;56.70;;;;;;4109556;28;20780;-62
2022/05/20 07:51:19;;;;;;;7.88;1.98;;;22.60;56.90;;;;;;4107362;28;20540;-59
2022/05/20 07:53:32;;;;;;;6.28;1.52;;;22.50;56.70;;;;;;4109042;28;20151;-59
2022/05/20 07:55:35;;;;;;;5.90;1.55;;;22.50;56.80;;;;;;4107891;28;20084;-52
2022/05/20 07:57:40;;;;;;;6.70;1.65;;;22.50;57.20;;;;;;4129694;28;20167;-46
2022/05/20 07:59:51;;;;;;;4.47;1.58;;;22.40;56.50;;;;;;4105624;28;20611;-48
2022/05/20 08:01:54;;;;;;;3.88;1.50;;;22.40;56.30;;;;;;4108010;28;20518;-47
2022/05/20 08:06:24;;;;;;;4.13;1.40;;;22.20;56.60;;;;;;4115424;28;20237;-47
2022/05/20 08:08:26;;;;;;;;;;;22.20;56.90;;;;;;4108157;28;20064;-46
2022/05/20 08:10:34;;;;;;;4.05;1.05;;;22.10;56.90;;;;;;4106972;28;19929;-45
2022/05/20 08:12:37;;;;;;;3.78;1.40;;;22.10;57.20;;;;;;4109423;28;20084;-46
2022/05/20 08:14:39;;;;;;;3.13;1.17;;;22.00;57.30;;;;;;4113956;28;20075;-47
2022/05/20 08:16:41;;;;;;;3.50;1.42;;;21.90;57.40;;;;;;4107354;28;20140;-44
2022/05/20 08:18:43;;;;;;;3.05;1.27;;;21.80;57.50;;;;;;4106826;28;20106;-49
2022/05/20 08:20:45;;;;;;;4.07;1.60;;;21.80;57.80;;;;;;4112941;28;21212;-49
2022/05/20 08:22:48;;;;;;;2.60;1.08;;;21.70;57.80;;;;;;4106626;28;20053;-49
2022/05/20 08:24:57;;;;;;;4.55;1.60;;;21.60;57.90;;;;;;4106936;28;20053;-50
2022/05/20 08:26:59;;;;;;;6.88;1.50;;;21.60;57.80;;;;;;4107887;28;20576;-46
2022/05/20 08:29:03;;;;;;;2.85;1.27;;;21.50;58.20;;;;;;4116470;28;20119;-45
2022/05/20 08:31:05;;;;;;;2.58;1.30;;;21.50;58.30;;;;;;4108010;28;20964;-49
2022/05/20 08:33:07;;;;;;;3.40;1.55;;;21.40;58.40;;;;;;4108006;28;20053;-45
2022/05/20 08:35:10;;;;;;;2.70;1.27;;;21.30;58.50;;;;;;4112877;28;20901;-49
2022/05/20 08:37:15;;;;;;;3.22;1.40;;;21.30;58.70;;;;;;4113897;28;20616;-48
2022/05/20 08:39:17;;;;;;;2.70;1.10;;;21.20;58.80;;;;;;4109235;28;20131;-51
2022/05/20 08:41:37;;;;;;;2.97;1.10;;;21.20;58.90;;;;;;4107656;28;20495;-44
2022/05/20 08:43:39;;;;;;;2.15;1.15;;;21.10;58.90;;;;;;4108617;28;20579;-46
2022/05/20 08:45:42;;;;;;;3.03;1.00;;;21.10;59.10;;;;;;4108388;28;20166;-45
2022/05/20 08:47:46;;;;;;;2.38;1.15;;;21.00;59.20;;;;;;4115441;28;20049;-49
2022/05/20 08:49:52;;;;;;;3.20;1.10;;;21.00;59.40;;;;;;4108657;28;20764;-49
2022/05/20 08:51:55;;;;;;;3.00;1.17;;;20.90;59.40;;;;;;4107212;28;20469;-46
2022/05/20 08:53:57;;;;;;;2.20;1.15;;;20.90;59.60;;;;;;4109880;28;20050;-44
2022/05/20 08:56:08;;;;;;;3.13;1.50;;;20.90;59.80;;;;;;4115320;28;20527;-49
2022/05/20 08:58:14;;;;;;;2.65;1.10;;;20.80;59.80;;;;;;4115551;28;20056;-49
2022/05/20 09:00:18;;;;;;;3.03;1.15;;;20.80;59.90;;;;;;4108883;28;21034;-48
2022/05/20 09:02:21;;;;;;;1.65;0.98;;;20.70;59.90;;;;;;4107110;28;20568;-45
2022/05/20 09:04:24;;;;;;;3.45;1.25;;;20.70;60.10;;;;;;4111269;28;20512;-44
2022/05/20 09:06:28;;;;;;;1.00;0.90;;;20.60;60.10;;;;;;4114821;28;20132;-46
2022/05/20 09:08:33;;;;;;;2.30;1.10;;;20.60;60.20;;;;;;4107838;28;20779;-45
2022/05/20 09:10:58;;;;;;;2.13;1.38;;;20.60;60.20;;;;;;4107689;28;20084;-45
2022/05/20 09:13:11;;;;;;;2.78;1.67;;;20.50;60.40;;;;;;4113604;28;21766;-50
2022/05/20 09:17:46;;;;;;;2.40;1.08;;;20.40;60.60;;;;;;4106845;28;20045;-46
2022/05/20 09:20:07;;;;;;;2.28;1.05;;;20.40;60.60;;;;;;4107215;28;20139;-48
2022/05/20 09:22:15;;;;;;;1.85;1.08;;;20.40;60.80;;;;;;4107013;28;20061;-47
2022/05/20 09:24:18;;;;;;;2.88;0.90;;;20.30;60.90;;;;;;4106837;28;20056;-45
2022/05/20 09:26:29;;;;;;;2.75;1.30;;;20.30;61.00;;;;;;4114845;28;20053;-49
2022/05/20 09:28:34;;;;;;;3.47;1.38;;;20.30;61.00;;;;;;4114036;28;20664;-46
2022/05/20 09:30:41;;;;;;;1.85;1.00;;;20.20;61.70;;;;;;4111995;28;20740;-49
2022/05/20 09:33:11;;;;;;;1.40;0.95;;;20.20;61.30;;;;;;4108123;28;20523;-47
2022/05/20 09:35:19;;;;;;;3.20;1.15;;;20.20;61.30;;;;;;4108718;28;20053;-45
2022/05/20 09:37:21;;;;;;;2.92;1.13;;;20.10;61.30;;;;;;4113150;28;20219;-44
2022/05/20 09:39:38;;;;;;;3.03;1.33;;;20.10;61.50;;;;;;4104836;28;20053;-48
2022/05/20 09:41:49;;;;;;;2.35;1.00;;;20.10;61.60;;;;;;4112050;28;20067;-43
2022/05/20 09:44:04;;;;;;;2.40;1.05;;;20.00;61.70;;;;;;4111225;28;20562;-46
2022/05/20 09:46:11;;;;;;;2.95;1.20;;;20.00;61.90;;;;;;4112596;28;20484;-50
2022/05/20 09:48:37;;;;;;;3.03;1.35;;;20.00;62.00;;;;;;4108433;28;20410;-46
2022/05/20 09:50:39;;;;;;;2.72;1.58;;;19.90;62.00;;;;;;4105176;28;20133;-48
2022/05/20 09:52:53;;;;;;;4.28;1.65;;;19.90;62.10;;;;;;4112356;28;20500;-45
2022/05/20 09:55:03;;;;;;;4.00;1.30;;;19.90;62.30;;;;;;4113226;28;20512;-45
2022/05/20 09:57:14;;;;;;;3.10;1.13;;;19.90;62.40;;;;;;4112125;28;20057;-48
2022/05/20 09:59:25;;;;;;;3.13;1.33;;;19.80;62.50;;;;;;4111889;28;20557;-48
2022/05/20 10:01:28;;;;;;;2.88;1.38;;;19.80;62.60;;;;;;4110863;28;20100;-44
2022/05/20 10:03:36;;;;;;;;;;;19.80;62.70;;;;;;4105328;28;20046;-47
2022/05/20 10:05:53;;;;;;;2.83;1.30;;;19.70;62.60;;;;;;4107281;28;19928;-45
2022/05/20 10:08:34;;;;;;;3.83;1.63;;;19.70;62.90;;;;;;4109672;28;20140;-46
2022/05/20 10:10:54;;;;;;;4.75;1.85;;;19.70;62.90;;;;;;4099392;28;20306;-44
2022/05/20 10:13:01;;;;;;;1.90;1.50;;;19.70;62.90;;;;;;4109297;28;20683;-49
2022/05/20 10:15:12;;;;;;;2.95;1.30;;;19.70;63.20;;;;;;4108274;28;20046;-45
2022/05/20 10:17:33;;;;;;;2.85;1.48;;;19.70;63.30;;;;;;4108297;28;20061;-44
2022/05/20 10:19:56;;;;;;;3.92;1.60;;;19.60;63.10;;;;;;4109751;28;20841;-46
2022/05/20 10:22:34;;;;;;;2.88;1.55;;;19.60;63.30;;;;;;4115440;28;20136;-46
2022/05/20 10:24:51;;;;;;;2.75;1.40;;;19.60;63.40;;;;;;4080886;28;20297;-48
2022/05/20 10:27:25;;;;;;;2.05;1.40;;;19.50;63.90;;;;;;4104897;28;20558;-46
2022/05/20 10:34:34;;;;;;;4.50;1.80;;;19.50;63.70;;;;;;4117176;28;20064;-46
2022/05/20 10:36:50;;;;;;;2.97;1.60;;;19.40;63.60;;;;;;4108741;28;20080;-46
2022/05/20 10:39:07;;;;;;;3.08;1.50;;;19.40;63.80;;;;;;4117001;28;20281;-48
2022/05/20 10:41:21;;;;;;;3.72;1.55;;;19.40;63.80;;;;;;4123184;28;20071;-44
2022/05/20 10:49:25;;;;;;;3.20;1.88;;;19.40;64.10;;;;;;4111566;28;20164;-44
2022/05/20 10:51:50;;;;;;;2.75;1.60;;;19.30;64.10;;;;;;4091024;28;20046;-46
2022/05/20 10:54:33;;;;;;;2.78;1.55;;;19.30;64.10;;;;;;4116918;28;20104;-49
2022/05/20 10:56:47;;;;;;;3.00;1.50;;;19.30;64.20;;;;;;4116999;28;20522;-44
2022/05/20 10:59:24;;;;;;;2.38;1.35;;;19.30;64.30;;;;;;4117187;28;20611;-44
2022/05/20 11:02:04;;;;;;;5.25;1.70;;;19.20;64.20;;;;;;4110771;28;20603;-44
2022/05/20 11:04:27;;;;;;;2.95;1.67;;;19.20;64.10;;;;;;4107846;28;20456;-46
2022/05/20 11:06:44;;;;;;;4.38;1.50;;;19.20;64.30;;;;;;4117084;28;20053;-46
2022/05/20 11:08:52;;;;;;;3.22;1.52;;;19.20;64.40;;;;;;4117136;28;20417;-45
2022/05/20 11:10:57;;;;;;;2.70;1.58;;;19.20;64.50;;;;;;4116515;28;20183;-51
2022/05/20 11:13:23;;;;;;;3.17;1.52;;;19.20;64.60;;;;;;4110795;28;20046;-47
2022/05/20 11:15:44;;;;;;;2.35;1.38;;;19.10;64.50;;;;;;4111832;28;20084;-44
2022/05/20 11:17:49;;;;;;;3.30;1.42;;;19.10;64.40;;;;;;4108271;28;20148;-48
2022/05/20 11:20:08;;;;;;;3.78;1.52;;;19.10;64.70;;;;;;4111170;28;20063;-47
2022/05/20 11:22:47;;;;;;;2.67;1.50;;;19.10;64.60;;;;;;4108025;28;20061;-48
2022/05/20 11:25:21;;;;;;;3.33;1.75;;;19.10;64.70;;;;;;4108709;28;20273;-46
2022/05/20 11:27:45;;;;;;;3.08;1.70;;;19.10;64.80;;;;;;4099164;28;20582;-46
2022/05/20 11:30:19;;;;;;;2.42;1.73;;;19.00;64.70;;;;;;4109826;28;20516;-46
2022/05/20 11:32:50;;;;;;;4.68;1.80;;;19.00;64.70;;;;;;4115146;28;20055;-49
2022/05/20 11:35:01;;;;;;;4.30;1.67;;;19.00;64.90;;;;;;4108110;28;20453;-46
2022/05/20 11:37:42;;;;;;;3.75;1.50;;;19.00;65.00;;;;;;4109621;28;20065;-47
2022/05/20 11:40:03;;;;;;;3.83;1.85;;;19.00;65.00;;;;;;4104267;28;20214;-47
2022/05/20 11:42:33;;;;;;;2.70;1.50;;;18.90;64.90;;;;;;4123373;28;20459;-44
2022/05/20 11:45:10;;;;;;;2.85;1.25;;;18.90;65.00;;;;;;4113915;28;20393;-43
2022/05/20 11:47:52;;;;;;;3.15;1.50;;;18.90;65.10;;;;;;4115492;28;20479;-46
2022/05/20 11:50:11;;;;;;;3.85;1.65;;;18.90;65.10;;;;;;4113261;28;21079;-49